Wednesday, November 26, 2014
08:53 UTC
  |  Log In   |  Register Free
Airport Search:

Petaluma Municipal Airport
(KO69)

Petaluma Municipal Airport Diagram
No Airport Diagram Available

FAA data valid effective November 13, 2014 - January 08, 2015 (unless otherwise noted).

 
 
 
 
 
 
 
 
 
 
 
 
 
 

Current Aviation Weather for Petaluma Municipal Airport (KO69)

The most recent METAR observation for KO69 was updated at: 0811
METAR Summary (Translated METAR)
KO69
260755Z AUTO 11003KT 10SM CLR 08/07 A3036 RMK AO1
KDVO
260755Z AUTO 20005KT 10SM CLR 09/08 A3035 RMK AO2
(7.3 nm SE from KO69)
KAPC
260754Z AUTO 00000KT 10SM CLR 06/05 A3035 RMK AO2 SLP267 T00560050 401890039
(15.6 nm SE from KO69)
TAF
No TAF information found within 50 nm of KDVO
  Airport Weather Conditions for KO69

 Current Weather at O69
46° F
Fair
East winds at 3.5 mph
O69 NOAA Radar

Pressure: 30.36 in
Humidity: 93%
Wind: East at 3.5 MPH (3 KT)
Dew Point: 44.6°F
Visibility: 10.00 mi


Airport Weather Forecast for KO69

Translated METAR and TAF for KDVO
Translated METAR for KDVO (0848 UTC 26 November 2014)
found at http://aviationweather.gov/adds/metars/
 
METAR text: KDVO 260835Z AUTO 15003KT 10SM CLR 10/08 A3034 RMK AO2
Conditions at: KDVO (NOVATO/GNOSS FLD, CA, US) observed 0835 UTC 26 November 2014
Temperature: 10.0°C (50°F)
Dewpoint: 8.0°C (46°F) [RH = 87%]
Pressure (altimeter): 30.34 inches Hg (1027.5 mb)
Winds: from the SSE (150 degrees) at 3 MPH (3 knots; 1.6 m/s)
Visibility: 10 or more miles (16+ km)
Ceiling: at least 12,000 feet AGL
Clouds: sky clear below 12,000 feet AGL
Weather: automated observation with no human augmentation;
there may or may not be significant weather present at this time
Translated TAF for KDVO

There is no translated TAF available for this airport

Find All Airport Services Find A Hotel Find A Rental Car Find A Golf Course Find A Restaurant $100 Hamburger



FBO's on the Field
FBO Company Facility Photos Services Transportation Aviation Fuel Prices: Prices include tax
Catering Weather Repair Courtesy Rental Type 100LL JetA JetA+ MOGAS 8087
 
Petaluma Municipal Airport

Currently rated 4.8 by 1 person
FS:Independent
Last Updated: Nov-12
Login to update fuel prices
SS:
Contact Petaluma Municipal AirportMore FBO Information
 
Add another FBO Facility Photos Catering Weather Repair Courtesy Rental Type 100LL JetA JetA+ MOGAS 8087
Services Transportation Aviation Fuel Prices: Prices include tax


model-print
model-print
model-print
model-print